sensor_id;sensor_type;location;lat;lon;timestamp;pressure;altitude;pressure_sealevel;temperature;humidity
73974;BME280;62336;-26.094;27.994;2023-08-21T00:00:22;84772.44;;;27.67;14.25
73974;BME280;62336;-26.094;27.994;2023-08-21T00:02:48;84767.80;;;27.43;14.52
73974;BME280;62336;-26.094;27.994;2023-08-21T00:05:14;84764.02;;;27.80;14.23
73974;BME280;62336;-26.094;27.994;2023-08-21T00:07:39;84763.24;;;27.38;14.51
73974;BME280;62336;-26.094;27.994;2023-08-21T00:10:06;84762.95;;;27.47;14.33
73974;BME280;62336;-26.094;27.994;2023-08-21T00:12:30;84765.27;;;28.15;14.11
73974;BME280;62336;-26.094;27.994;2023-08-21T00:14:56;84763.78;;;27.67;14.07
73974;BME280;62336;-26.094;27.994;2023-08-21T00:17:23;84759.77;;;27.69;14.02
73974;BME280;62336;-26.094;27.994;2023-08-21T00:19:47;84761.47;;;27.64;14.14
73974;BME280;62336;-26.094;27.994;2023-08-21T00:22:13;84754.18;;;27.28;14.44
73974;BME280;62336;-26.094;27.994;2023-08-21T00:24:38;84759.67;;;28.06;14.07
73974;BME280;62336;-26.094;27.994;2023-08-21T00:27:04;84763.82;;;27.56;13.95
73974;BME280;62336;-26.094;27.994;2023-08-21T00:29:30;84762.16;;;27.36;13.99
73974;BME280;62336;-26.094;27.994;2023-08-21T00:31:55;84757.72;;;27.53;14.23
73974;BME280;62336;-26.094;27.994;2023-08-21T00:34:20;84758.20;;;27.90;13.91
73974;BME280;62336;-26.094;27.994;2023-08-21T00:36:45;84754.71;;;28.19;13.83
73974;BME280;62336;-26.094;27.994;2023-08-21T00:39:16;84749.64;;;28.04;13.80
73974;BME280;62336;-26.094;27.994;2023-08-21T00:41:36;84743.47;;;27.89;14.01
73974;BME280;62336;-26.094;27.994;2023-08-21T00:44:01;84746.59;;;28.15;13.90
73974;BME280;62336;-26.094;27.994;2023-08-21T00:46:26;84743.21;;;28.09;13.84
73974;BME280;62336;-26.094;27.994;2023-08-21T00:48:52;84746.20;;;27.54;14.49
73974;BME280;62336;-26.094;27.994;2023-08-21T00:51:18;84741.89;;;27.89;14.37
73974;BME280;62336;-26.094;27.994;2023-08-21T00:53:44;84741.92;;;27.63;14.29
73974;BME280;62336;-26.094;27.994;2023-08-21T00:56:09;84736.82;;;27.25;14.20
73974;BME280;62336;-26.094;27.994;2023-08-21T00:58:34;84742.17;;;27.73;14.08
73974;BME280;62336;-26.094;27.994;2023-08-21T01:00:59;84740.37;;;27.43;14.41
73974;BME280;62336;-26.094;27.994;2023-08-21T01:03:25;84736.89;;;27.13;14.53
73974;BME280;62336;-26.094;27.994;2023-08-21T01:05:51;84740.33;;;28.17;13.89
73974;BME280;62336;-26.094;27.994;2023-08-21T01:08:21;84737.19;;;27.44;14.14
73974;BME280;62336;-26.094;27.994;2023-08-21T01:10:47;84740.66;;;26.76;14.84
73974;BME280;62336;-26.094;27.994;2023-08-21T01:13:14;84743.37;;;27.00;14.96
73974;BME280;62336;-26.094;27.994;2023-08-21T01:15:33;84745.67;;;27.50;14.49
73974;BME280;62336;-26.094;27.994;2023-08-21T01:17:58;84742.00;;;27.37;14.49
73974;BME280;62336;-26.094;27.994;2023-08-21T01:20:23;84739.21;;;27.66;14.28
73974;BME280;62336;-26.094;27.994;2023-08-21T01:22:48;84731.47;;;27.87;14.23
73974;BME280;62336;-26.094;27.994;2023-08-21T01:25:14;84733.80;;;28.35;13.79
73974;BME280;62336;-26.094;27.994;2023-08-21T01:27:42;84731.43;;;27.38;14.28
73974;BME280;62336;-26.094;27.994;2023-08-21T01:30:06;84730.08;;;26.83;14.85
73974;BME280;62336;-26.094;27.994;2023-08-21T01:32:38;84726.30;;;26.84;14.81
73974;BME280;62336;-26.094;27.994;2023-08-21T01:34:57;84724.04;;;27.74;14.24
73974;BME280;62336;-26.094;27.994;2023-08-21T01:37:23;84732.58;;;28.00;14.03
73974;BME280;62336;-26.094;27.994;2023-08-21T01:39:48;84732.05;;;27.34;14.18
73974;BME280;62336;-26.094;27.994;2023-08-21T01:42:14;84730.07;;;27.03;14.60
73974;BME280;62336;-26.094;27.994;2023-08-21T01:44:39;84728.63;;;27.11;14.73
73974;BME280;62336;-26.094;27.994;2023-08-21T01:47:04;84732.42;;;26.68;14.84
73974;BME280;62336;-26.094;27.994;2023-08-21T01:49:29;84731.42;;;26.67;14.75
73974;BME280;62336;-26.094;27.994;2023-08-21T01:51:54;84729.35;;;26.40;14.90
73974;BME280;62336;-26.094;27.994;2023-08-21T01:54:20;84725.55;;;26.42;15.10
73974;BME280;62336;-26.094;27.994;2023-08-21T01:56:51;84723.40;;;25.68;15.70
73974;BME280;62336;-26.094;27.994;2023-08-21T01:59:11;84726.71;;;25.40;15.73
73974;BME280;62336;-26.094;27.994;2023-08-21T02:01:37;84725.63;;;25.92;15.66
73974;BME280;62336;-26.094;27.994;2023-08-21T02:04:02;84730.18;;;26.53;15.22
73974;BME280;62336;-26.094;27.994;2023-08-21T02:06:27;84737.62;;;27.23;14.84
73974;BME280;62336;-26.094;27.994;2023-08-21T02:08:52;84737.11;;;26.87;14.76
73974;BME280;62336;-26.094;27.994;2023-08-21T02:11:18;84734.31;;;26.83;15.25
73974;BME280;62336;-26.094;27.994;2023-08-21T02:13:43;84736.20;;;27.52;14.95
73974;BME280;62336;-26.094;27.994;2023-08-21T02:16:09;84743.68;;;26.76;14.78
73974;BME280;62336;-26.094;27.994;2023-08-21T02:18:34;84742.80;;;26.71;15.15
73974;BME280;62336;-26.094;27.994;2023-08-21T02:21:01;84743.45;;;26.27;15.44
73974;BME280;62336;-26.094;27.994;2023-08-21T02:23:25;84746.59;;;25.99;15.79
73974;BME280;62336;-26.094;27.994;2023-08-21T02:25:50;84747.57;;;26.18;15.55
73974;BME280;62336;-26.094;27.994;2023-08-21T02:28:15;84754.43;;;26.59;15.40
73974;BME280;62336;-26.094;27.994;2023-08-21T02:30:41;84756.82;;;26.34;15.29
73974;BME280;62336;-26.094;27.994;2023-08-21T02:33:06;84760.30;;;26.37;15.38
73974;BME280;62336;-26.094;27.994;2023-08-21T02:35:31;84751.91;;;26.04;15.55
73974;BME280;62336;-26.094;27.994;2023-08-21T02:37:57;84748.25;;;27.15;14.88
73974;BME280;62336;-26.094;27.994;2023-08-21T02:40:22;84749.46;;;28.13;14.34
73974;BME280;62336;-26.094;27.994;2023-08-21T02:42:47;84748.07;;;27.38;14.53
73974;BME280;62336;-26.094;27.994;2023-08-21T02:45:13;84750.46;;;27.47;14.78
73974;BME280;62336;-26.094;27.994;2023-08-21T02:47:39;84753.57;;;27.33;14.61
73974;BME280;62336;-26.094;27.994;2023-08-21T02:50:05;84757.94;;;27.59;14.29
73974;BME280;62336;-26.094;27.994;2023-08-21T02:52:29;84755.05;;;27.19;14.62
73974;BME280;62336;-26.094;27.994;2023-08-21T02:54:55;84756.78;;;27.34;14.48
73974;BME280;62336;-26.094;27.994;2023-08-21T02:57:20;84754.87;;;27.17;14.67
73974;BME280;62336;-26.094;27.994;2023-08-21T02:59:46;84748.83;;;27.17;14.63
73974;BME280;62336;-26.094;27.994;2023-08-21T03:02:12;84747.03;;;26.93;14.83
73974;BME280;62336;-26.094;27.994;2023-08-21T03:04:37;84746.28;;;26.85;14.78
73974;BME280;62336;-26.094;27.994;2023-08-21T03:07:03;84745.64;;;26.69;14.92
73974;BME280;62336;-26.094;27.994;2023-08-21T03:09:28;84747.57;;;26.52;14.67
73974;BME280;62336;-26.094;27.994;2023-08-21T03:11:53;84750.59;;;27.40;14.50
73974;BME280;62336;-26.094;27.994;2023-08-21T03:14:18;84756.04;;;27.69;14.23
73974;BME280;62336;-26.094;27.994;2023-08-21T03:16:43;84755.06;;;27.49;14.31
73974;BME280;62336;-26.094;27.994;2023-08-21T03:19:09;84753.79;;;26.74;14.41
73974;BME280;62336;-26.094;27.994;2023-08-21T03:21:34;84756.15;;;27.22;14.52
73974;BME280;62336;-26.094;27.994;2023-08-21T03:24:00;84758.73;;;27.15;14.51
73974;BME280;62336;-26.094;27.994;2023-08-21T03:26:25;84756.79;;;27.00;14.25
73974;BME280;62336;-26.094;27.994;2023-08-21T03:28:50;84759.91;;;27.42;14.01
73974;BME280;62336;-26.094;27.994;2023-08-21T03:31:16;84761.73;;;28.06;13.94
73974;BME280;62336;-26.094;27.994;2023-08-21T03:33:41;84758.94;;;27.85;13.90
73974;BME280;62336;-26.094;27.994;2023-08-21T03:36:07;84761.36;;;28.07;13.79
73974;BME280;62336;-26.094;27.994;2023-08-21T03:38:32;84759.39;;;27.96;13.98
73974;BME280;62336;-26.094;27.994;2023-08-21T03:40:58;84759.21;;;28.02;14.02
73974;BME280;62336;-26.094;27.994;2023-08-21T03:43:25;84761.76;;;27.76;14.05
73974;BME280;62336;-26.094;27.994;2023-08-21T03:45:48;84757.01;;;27.07;14.45
73974;BME280;62336;-26.094;27.994;2023-08-21T03:48:14;84760.11;;;27.32;14.17
73974;BME280;62336;-26.094;27.994;2023-08-21T03:50:39;84757.88;;;27.00;14.47
73974;BME280;62336;-26.094;27.994;2023-08-21T03:53:05;84756.92;;;27.00;14.47
73974;BME280;62336;-26.094;27.994;2023-08-21T03:55:30;84756.04;;;26.73;14.43
73974;BME280;62336;-26.094;27.994;2023-08-21T03:57:55;84756.26;;;27.06;14.42
73974;BME280;62336;-26.094;27.994;2023-08-21T04:00:20;84754.92;;;27.25;14.15
73974;BME280;62336;-26.094;27.994;2023-08-21T04:02:46;84757.93;;;27.91;14.22
73974;BME280;62336;-26.094;27.994;2023-08-21T04:05:12;84760.58;;;27.24;14.24
73974;BME280;62336;-26.094;27.994;2023-08-21T04:07:37;84763.24;;;27.25;14.46
73974;BME280;62336;-26.094;27.994;2023-08-21T04:10:02;84763.19;;;26.77;14.83
73974;BME280;62336;-26.094;27.994;2023-08-21T04:12:27;84761.96;;;26.98;15.01
73974;BME280;62336;-26.094;27.994;2023-08-21T04:14:52;84760.17;;;26.43;14.46
73974;BME280;62336;-26.094;27.994;2023-08-21T04:17:21;84759.38;;;27.80;13.99
73974;BME280;62336;-26.094;27.994;2023-08-21T04:19:44;84758.17;;;27.67;13.81
73974;BME280;62336;-26.094;27.994;2023-08-21T04:22:09;84756.74;;;27.04;14.14
73974;BME280;62336;-26.094;27.994;2023-08-21T04:24:35;84759.46;;;26.86;14.05
73974;BME280;62336;-26.094;27.994;2023-08-21T04:27:00;84760.12;;;27.12;13.98
73974;BME280;62336;-26.094;27.994;2023-08-21T04:29:26;84764.86;;;26.59;14.05
73974;BME280;62336;-26.094;27.994;2023-08-21T04:31:52;84766.87;;;27.41;13.26
73974;BME280;62336;-26.094;27.994;2023-08-21T04:34:17;84765.22;;;28.46;12.45
73974;BME280;62336;-26.094;27.994;2023-08-21T04:36:43;84764.48;;;28.41;12.13
73974;BME280;62336;-26.094;27.994;2023-08-21T04:39:08;84766.60;;;28.38;12.07
73974;BME280;62336;-26.094;27.994;2023-08-21T04:41:34;84765.64;;;28.56;12.13
73974;BME280;62336;-26.094;27.994;2023-08-21T04:43:59;84771.65;;;28.07;11.72
73974;BME280;62336;-26.094;27.994;2023-08-21T04:46:24;84771.96;;;27.67;11.60
73974;BME280;62336;-26.094;27.994;2023-08-21T04:48:50;84775.20;;;26.89;11.85
73974;BME280;62336;-26.094;27.994;2023-08-21T04:51:15;84778.64;;;28.32;11.62
73974;BME280;62336;-26.094;27.994;2023-08-21T04:53:40;84782.44;;;28.90;10.98
73974;BME280;62336;-26.094;27.994;2023-08-21T04:56:06;84781.16;;;28.72;10.94
73974;BME280;62336;-26.094;27.994;2023-08-21T04:58:31;84783.45;;;29.04;10.72
73974;BME280;62336;-26.094;27.994;2023-08-21T05:00:56;84789.24;;;29.70;9.96
73974;BME280;62336;-26.094;27.994;2023-08-21T05:03:21;84783.61;;;29.21;10.20
73974;BME280;62336;-26.094;27.994;2023-08-21T05:05:52;84788.81;;;28.59;10.29
73974;BME280;62336;-26.094;27.994;2023-08-21T05:08:13;84789.40;;;28.75;10.27
73974;BME280;62336;-26.094;27.994;2023-08-21T05:10:37;84789.33;;;28.75;10.47
73974;BME280;62336;-26.094;27.994;2023-08-21T05:13:04;84788.61;;;28.72;10.24
73974;BME280;62336;-26.094;27.994;2023-08-21T05:15:28;84789.93;;;29.26;10.09
73974;BME280;62336;-26.094;27.994;2023-08-21T05:17:53;84792.62;;;29.65;9.89
73974;BME280;62336;-26.094;27.994;2023-08-21T05:20:18;84793.41;;;28.55;9.97
73974;BME280;62336;-26.094;27.994;2023-08-21T05:22:43;84788.75;;;28.57;10.38
73974;BME280;62336;-26.094;27.994;2023-08-21T05:25:09;84786.94;;;28.67;10.06
73974;BME280;62336;-26.094;27.994;2023-08-21T05:27:34;84791.57;;;29.48;9.82
73974;BME280;62336;-26.094;27.994;2023-08-21T05:30:00;84795.90;;;29.85;9.56
73974;BME280;62336;-26.094;27.994;2023-08-21T05:32:25;84797.49;;;30.26;9.27
73974;BME280;62336;-26.094;27.994;2023-08-21T05:34:51;84802.15;;;30.44;9.39
73974;BME280;62336;-26.094;27.994;2023-08-21T05:37:16;84806.97;;;29.96;9.65
73974;BME280;62336;-26.094;27.994;2023-08-21T05:39:42;84807.45;;;29.37;9.81
73974;BME280;62336;-26.094;27.994;2023-08-21T05:42:07;84809.57;;;28.78;10.25
73974;BME280;62336;-26.094;27.994;2023-08-21T05:44:33;84810.82;;;28.86;10.29
73974;BME280;62336;-26.094;27.994;2023-08-21T05:46:58;84806.00;;;28.33;10.35
73974;BME280;62336;-26.094;27.994;2023-08-21T05:49:25;84808.50;;;28.79;10.51
73974;BME280;62336;-26.094;27.994;2023-08-21T05:51:49;84807.28;;;29.29;10.46
73974;BME280;62336;-26.094;27.994;2023-08-21T05:54:15;84810.97;;;29.26;10.43
73974;BME280;62336;-26.094;27.994;2023-08-21T05:56:40;84812.84;;;28.58;10.69
73974;BME280;62336;-26.094;27.994;2023-08-21T05:59:05;84815.07;;;28.84;10.83
73974;BME280;62336;-26.094;27.994;2023-08-21T06:01:32;84814.96;;;29.07;10.90
73974;BME280;62336;-26.094;27.994;2023-08-21T06:03:57;84816.12;;;29.08;10.75
73974;BME280;62336;-26.094;27.994;2023-08-21T06:06:22;84813.88;;;29.03;10.84
73974;BME280;62336;-26.094;27.994;2023-08-21T06:08:48;84815.38;;;29.05;10.50
73974;BME280;62336;-26.094;27.994;2023-08-21T06:11:13;84817.70;;;29.96;10.14
73974;BME280;62336;-26.094;27.994;2023-08-21T06:13:38;84818.73;;;29.68;10.44
73974;BME280;62336;-26.094;27.994;2023-08-21T06:16:03;84819.13;;;29.83;10.40
73974;BME280;62336;-26.094;27.994;2023-08-21T06:18:29;84816.10;;;30.58;9.68
73974;BME280;62336;-26.094;27.994;2023-08-21T06:20:56;84817.33;;;30.51;9.55
73974;BME280;62336;-26.094;27.994;2023-08-21T06:23:20;84818.61;;;30.49;9.40
73974;BME280;62336;-26.094;27.994;2023-08-21T06:25:47;84819.71;;;30.34;10.52
73974;BME280;62336;-26.094;27.994;2023-08-21T06:28:10;84819.86;;;30.70;9.61
73974;BME280;62336;-26.094;27.994;2023-08-21T06:30:36;84819.57;;;30.45;10.36
73974;BME280;62336;-26.094;27.994;2023-08-21T06:33:02;84821.29;;;30.65;9.43
73974;BME280;62336;-26.094;27.994;2023-08-21T06:35:26;84821.20;;;30.61;9.82
73974;BME280;62336;-26.094;27.994;2023-08-21T06:37:52;84817.98;;;31.02;9.85
73974;BME280;62336;-26.094;27.994;2023-08-21T06:40:17;84819.46;;;30.96;9.54
73974;BME280;62336;-26.094;27.994;2023-08-21T06:42:43;84816.39;;;31.02;9.46
73974;BME280;62336;-26.094;27.994;2023-08-21T06:45:09;84816.21;;;31.23;9.65
73974;BME280;62336;-26.094;27.994;2023-08-21T06:47:33;84816.87;;;31.70;9.40
73974;BME280;62336;-26.094;27.994;2023-08-21T06:49:59;84821.15;;;31.75;9.57
73974;BME280;62336;-26.094;27.994;2023-08-21T06:52:25;84824.57;;;30.85;10.39
73974;BME280;62336;-26.094;27.994;2023-08-21T06:54:50;84827.15;;;31.48;9.89
73974;BME280;62336;-26.094;27.994;2023-08-21T06:57:16;84824.10;;;31.55;9.82
73974;BME280;62336;-26.094;27.994;2023-08-21T06:59:40;84825.60;;;31.85;9.83
73974;BME280;62336;-26.094;27.994;2023-08-21T07:02:06;84830.29;;;32.19;9.69
73974;BME280;62336;-26.094;27.994;2023-08-21T07:04:31;84828.59;;;32.23;9.81
73974;BME280;62336;-26.094;27.994;2023-08-21T07:06:57;84824.41;;;32.16;9.92
73974;BME280;62336;-26.094;27.994;2023-08-21T07:09:22;84822.82;;;32.53;9.76
73974;BME280;62336;-26.094;27.994;2023-08-21T07:11:48;84821.29;;;32.47;9.66
73974;BME280;62336;-26.094;27.994;2023-08-21T07:14:14;84821.18;;;32.92;9.44
73974;BME280;62336;-26.094;27.994;2023-08-21T07:16:39;84823.61;;;33.44;9.36
73974;BME280;62336;-26.094;27.994;2023-08-21T07:19:04;84824.71;;;32.60;10.00
73974;BME280;62336;-26.094;27.994;2023-08-21T07:21:30;84825.88;;;32.32;10.18
73974;BME280;62336;-26.094;27.994;2023-08-21T07:23:55;84832.17;;;33.09;10.21
73974;BME280;62336;-26.094;27.994;2023-08-21T07:26:20;84828.45;;;32.91;9.80
73974;BME280;62336;-26.094;27.994;2023-08-21T07:28:51;84829.57;;;32.49;10.46
73974;BME280;62336;-26.094;27.994;2023-08-21T07:31:11;84831.23;;;32.44;10.33
73974;BME280;62336;-26.094;27.994;2023-08-21T07:33:37;84827.23;;;33.02;10.19
73974;BME280;62336;-26.094;27.994;2023-08-21T07:36:03;84829.32;;;33.01;10.05
73974;BME280;62336;-26.094;27.994;2023-08-21T07:38:27;84834.07;;;33.30;10.17
73974;BME280;62336;-26.094;27.994;2023-08-21T07:41:03;84837.36;;;33.79;9.93
73974;BME280;62336;-26.094;27.994;2023-08-21T07:43:18;84836.04;;;34.13;9.82
73974;BME280;62336;-26.094;27.994;2023-08-21T07:45:43;84833.99;;;34.37;9.16
73974;BME280;62336;-26.094;27.994;2023-08-21T07:48:08;84832.95;;;33.50;9.71
73974;BME280;62336;-26.094;27.994;2023-08-21T07:50:34;84836.20;;;33.69;9.50
73974;BME280;62336;-26.094;27.994;2023-08-21T07:52:59;84830.46;;;33.07;9.73
73974;BME280;62336;-26.094;27.994;2023-08-21T07:55:24;84838.04;;;33.16;9.74
73974;BME280;62336;-26.094;27.994;2023-08-21T07:57:50;84839.40;;;32.86;9.73
73974;BME280;62336;-26.094;27.994;2023-08-21T08:00:16;84838.76;;;32.64;9.74
73974;BME280;62336;-26.094;27.994;2023-08-21T08:02:41;84838.65;;;32.84;9.79
73974;BME280;62336;-26.094;27.994;2023-08-21T08:05:07;84834.81;;;33.43;9.31
73974;BME280;62336;-26.094;27.994;2023-08-21T08:07:32;84830.75;;;34.08;9.48
73974;BME280;62336;-26.094;27.994;2023-08-21T08:09:58;84822.85;;;34.82;8.78
73974;BME280;62336;-26.094;27.994;2023-08-21T08:12:23;84823.55;;;34.16;8.72
73974;BME280;62336;-26.094;27.994;2023-08-21T08:14:49;84817.33;;;34.58;8.75
73974;BME280;62336;-26.094;27.994;2023-08-21T08:17:15;84815.34;;;34.20;9.15
73974;BME280;62336;-26.094;27.994;2023-08-21T08:19:40;84812.14;;;34.51;8.65
73974;BME280;62336;-26.094;27.994;2023-08-21T08:22:06;84813.37;;;34.20;8.97
73974;BME280;62336;-26.094;27.994;2023-08-21T08:24:31;84811.13;;;33.63;8.86
73974;BME280;62336;-26.094;27.994;2023-08-21T08:26:57;84807.63;;;33.72;9.10
73974;BME280;62336;-26.094;27.994;2023-08-21T08:29:22;84810.72;;;34.34;9.07
73974;BME280;62336;-26.094;27.994;2023-08-21T08:31:47;84803.55;;;34.69;8.63
73974;BME280;62336;-26.094;27.994;2023-08-21T08:34:14;84803.14;;;35.10;8.88
73974;BME280;62336;-26.094;27.994;2023-08-21T08:36:38;84807.65;;;35.13;8.65
73974;BME280;62336;-26.094;27.994;2023-08-21T08:39:04;84800.79;;;35.36;8.18
73974;BME280;62336;-26.094;27.994;2023-08-21T08:41:36;84800.36;;;35.27;8.58
73974;BME280;62336;-26.094;27.994;2023-08-21T08:43:57;84798.10;;;35.56;8.63
73974;BME280;62336;-26.094;27.994;2023-08-21T08:46:21;84794.69;;;35.62;8.63
73974;BME280;62336;-26.094;27.994;2023-08-21T08:48:46;84790.07;;;34.83;8.75
73974;BME280;62336;-26.094;27.994;2023-08-21T08:51:13;84789.35;;;34.39;9.29
73974;BME280;62336;-26.094;27.994;2023-08-21T08:53:38;84787.67;;;35.52;8.91
73974;BME280;62336;-26.094;27.994;2023-08-21T08:56:04;84788.79;;;35.80;8.83
73974;BME280;62336;-26.094;27.994;2023-08-21T08:58:29;84788.45;;;35.25;8.74
73974;BME280;62336;-26.094;27.994;2023-08-21T09:00:53;84784.27;;;35.23;8.77
73974;BME280;62336;-26.094;27.994;2023-08-21T09:03:19;84784.24;;;34.80;9.01
73974;BME280;62336;-26.094;27.994;2023-08-21T09:05:44;84777.37;;;35.67;8.76
73974;BME280;62336;-26.094;27.994;2023-08-21T09:08:11;84775.64;;;36.04;8.64
73974;BME280;62336;-26.094;27.994;2023-08-21T09:10:36;84771.68;;;36.28;8.49
73974;BME280;62336;-26.094;27.994;2023-08-21T09:13:00;84771.78;;;36.18;8.99
73974;BME280;62336;-26.094;27.994;2023-08-21T09:15:28;84767.59;;;35.69;8.78
73974;BME280;62336;-26.094;27.994;2023-08-21T09:17:54;84768.39;;;36.33;8.16
73974;BME280;62336;-26.094;27.994;2023-08-21T09:20:16;84760.00;;;35.63;8.42
73974;BME280;62336;-26.094;27.994;2023-08-21T09:22:41;84759.91;;;36.36;8.39
73974;BME280;62336;-26.094;27.994;2023-08-21T09:25:07;84760.04;;;36.48;8.16
73974;BME280;62336;-26.094;27.994;2023-08-21T09:27:32;84747.11;;;36.69;7.96
73974;BME280;62336;-26.094;27.994;2023-08-21T09:29:58;84742.23;;;36.53;8.00
73974;BME280;62336;-26.094;27.994;2023-08-21T09:32:23;84737.70;;;36.11;7.91
73974;BME280;62336;-26.094;27.994;2023-08-21T09:34:49;84732.59;;;36.72;7.96
73974;BME280;62336;-26.094;27.994;2023-08-21T09:37:16;84732.93;;;36.90;7.41
73974;BME280;62336;-26.094;27.994;2023-08-21T09:39:39;84727.36;;;36.76;7.74
73974;BME280;62336;-26.094;27.994;2023-08-21T09:42:06;84725.77;;;36.01;7.96
73974;BME280;62336;-26.094;27.994;2023-08-21T09:44:36;84720.26;;;36.76;7.99
73974;BME280;62336;-26.094;27.994;2023-08-21T09:46:55;84718.01;;;36.84;7.65
73974;BME280;62336;-26.094;27.994;2023-08-21T09:49:21;84722.57;;;36.53;7.79
73974;BME280;62336;-26.094;27.994;2023-08-21T09:51:46;84700.25;;;36.89;7.34
73974;BME280;62336;-26.094;27.994;2023-08-21T09:54:12;84705.02;;;37.67;6.68
73974;BME280;62336;-26.094;27.994;2023-08-21T09:56:37;84693.92;;;37.65;6.24
73974;BME280;62336;-26.094;27.994;2023-08-21T09:59:03;84690.05;;;37.70;5.18
73974;BME280;62336;-26.094;27.994;2023-08-21T10:01:27;84687.43;;;37.63;5.54
73974;BME280;62336;-26.094;27.994;2023-08-21T10:03:54;84679.52;;;37.49;5.68
73974;BME280;62336;-26.094;27.994;2023-08-21T10:06:18;84668.54;;;37.38;5.52
73974;BME280;62336;-26.094;27.994;2023-08-21T10:08:45;84680.28;;;38.03;5.30
73974;BME280;62336;-26.094;27.994;2023-08-21T10:11:09;84679.94;;;37.96;5.46
73974;BME280;62336;-26.094;27.994;2023-08-21T10:13:35;84667.74;;;37.81;5.13
73974;BME280;62336;-26.094;27.994;2023-08-21T10:15:59;84661.29;;;38.38;4.92
73974;BME280;62336;-26.094;27.994;2023-08-21T10:18:30;84662.94;;;37.85;4.46
73974;BME280;62336;-26.094;27.994;2023-08-21T10:20:50;84656.58;;;38.07;4.34
73974;BME280;62336;-26.094;27.994;2023-08-21T10:23:25;84652.17;;;37.76;4.62
73974;BME280;62336;-26.094;27.994;2023-08-21T10:25:42;84648.03;;;38.29;4.53
73974;BME280;62336;-26.094;27.994;2023-08-21T10:28:07;84639.82;;;38.45;4.42
73974;BME280;62336;-26.094;27.994;2023-08-21T10:30:33;84628.42;;;38.54;4.50
73974;BME280;62336;-26.094;27.994;2023-08-21T10:32:59;84630.20;;;38.77;3.89
73974;BME280;62336;-26.094;27.994;2023-08-21T10:35:28;84613.45;;;38.27;4.06
73974;BME280;62336;-26.094;27.994;2023-08-21T10:38:07;84609.72;;;38.95;3.83
73974;BME280;62336;-26.094;27.994;2023-08-21T10:40:22;84610.45;;;39.30;3.86
73974;BME280;62336;-26.094;27.994;2023-08-21T10:42:40;84603.67;;;38.92;3.83
73974;BME280;62336;-26.094;27.994;2023-08-21T10:45:10;84591.26;;;38.46;4.40
73974;BME280;62336;-26.094;27.994;2023-08-21T10:47:33;84592.62;;;37.86;4.36
73974;BME280;62336;-26.094;27.994;2023-08-21T10:49:56;84580.06;;;38.69;4.38
73974;BME280;62336;-26.094;27.994;2023-08-21T10:52:23;84575.91;;;38.28;4.64
73974;BME280;62336;-26.094;27.994;2023-08-21T10:54:46;84568.69;;;38.63;4.45
73974;BME280;62336;-26.094;27.994;2023-08-21T10:57:10;84570.83;;;37.98;4.60
73974;BME280;62336;-26.094;27.994;2023-08-21T10:59:36;84571.81;;;38.68;4.54
73974;BME280;62336;-26.094;27.994;2023-08-21T11:02:01;84567.98;;;38.11;4.85
73974;BME280;62336;-26.094;27.994;2023-08-21T11:04:27;84568.88;;;39.15;4.82
73974;BME280;62336;-26.094;27.994;2023-08-21T11:06:53;84560.12;;;39.18;4.62
73974;BME280;62336;-26.094;27.994;2023-08-21T11:09:18;84559.75;;;38.61;4.47
73974;BME280;62336;-26.094;27.994;2023-08-21T11:11:45;84561.74;;;38.87;4.24
73974;BME280;62336;-26.094;27.994;2023-08-21T11:14:09;84551.05;;;38.91;4.45
73974;BME280;62336;-26.094;27.994;2023-08-21T11:16:34;84552.46;;;38.93;4.54
73974;BME280;62336;-26.094;27.994;2023-08-21T11:19:04;84545.93;;;39.12;4.65
73974;BME280;62336;-26.094;27.994;2023-08-21T11:21:25;84547.77;;;38.80;4.58
73974;BME280;62336;-26.094;27.994;2023-08-21T11:23:50;84542.07;;;38.97;4.29
73974;BME280;62336;-26.094;27.994;2023-08-21T11:26:16;84543.82;;;38.78;4.60
73974;BME280;62336;-26.094;27.994;2023-08-21T11:28:41;84535.45;;;38.75;4.55
73974;BME280;62336;-26.094;27.994;2023-08-21T11:31:07;84536.01;;;38.48;4.50
73974;BME280;62336;-26.094;27.994;2023-08-21T11:33:32;84529.68;;;38.66;4.80
73974;BME280;62336;-26.094;27.994;2023-08-21T11:35:56;84527.19;;;38.85;4.48
73974;BME280;62336;-26.094;27.994;2023-08-21T11:38:23;84529.90;;;39.67;4.53
73974;BME280;62336;-26.094;27.994;2023-08-21T11:40:54;84533.08;;;39.46;4.49
73974;BME280;62336;-26.094;27.994;2023-08-21T11:43:13;84526.11;;;39.98;4.22
73974;BME280;62336;-26.094;27.994;2023-08-21T11:45:38;84526.51;;;39.19;4.66
73974;BME280;62336;-26.094;27.994;2023-08-21T11:48:05;84526.79;;;40.01;4.22
73974;BME280;62336;-26.094;27.994;2023-08-21T11:50:29;84516.33;;;40.18;4.04
73974;BME280;62336;-26.094;27.994;2023-08-21T11:52:56;84513.80;;;40.00;4.03
73974;BME280;62336;-26.094;27.994;2023-08-21T11:55:21;84527.41;;;40.47;4.24
73974;BME280;62336;-26.094;27.994;2023-08-21T11:57:48;84524.86;;;39.84;5.12
73974;BME280;62336;-26.094;27.994;2023-08-21T12:00:14;84518.51;;;39.41;4.16
73974;BME280;62336;-26.094;27.994;2023-08-21T12:02:37;84525.88;;;39.53;4.47
73974;BME280;62336;-26.094;27.994;2023-08-21T12:05:04;84517.14;;;39.29;4.26
73974;BME280;62336;-26.094;27.994;2023-08-21T12:07:28;84505.61;;;39.87;4.20
73974;BME280;62336;-26.094;27.994;2023-08-21T12:09:53;84502.44;;;39.87;4.19
73974;BME280;62336;-26.094;27.994;2023-08-21T12:12:19;84497.99;;;38.87;4.43
73974;BME280;62336;-26.094;27.994;2023-08-21T12:14:45;84507.10;;;39.30;4.19
73974;BME280;62336;-26.094;27.994;2023-08-21T12:17:10;84500.42;;;39.70;4.26
73974;BME280;62336;-26.094;27.994;2023-08-21T12:19:35;84494.11;;;39.68;4.20
73974;BME280;62336;-26.094;27.994;2023-08-21T12:22:07;84497.85;;;39.60;4.25
73974;BME280;62336;-26.094;27.994;2023-08-21T12:24:26;84501.21;;;40.04;4.00
73974;BME280;62336;-26.094;27.994;2023-08-21T12:26:52;84498.17;;;39.28;4.46
73974;BME280;62336;-26.094;27.994;2023-08-21T12:29:17;84497.23;;;39.02;4.38
73974;BME280;62336;-26.094;27.994;2023-08-21T12:31:43;84494.58;;;39.16;4.04
73974;BME280;62336;-26.094;27.994;2023-08-21T12:34:08;84498.93;;;39.66;4.08